Selma, OR (97538)

2:32 AM PDT on August 31, 2016 (GMT -0700)
Lakeshore Drive | | Change Station

Elev 1394 ft 42.27 °N, 123.55 °W | Updated 1 minute ago

Smoke
Smoke
44.9 °F
Feels Like 45 °F
N
0.0
Wind Variable Wind from East
Gusts 0.0 mph

Today
High -- | Low -- °F
--% Chance of Precip.
Yesterday
High -- | Low -- °F
Precip. -- in
Pressure 29.96 in
Visibility 10.0 miles
Clouds Clear
Windchill 45 °F
Dew Point 42 °F
Humidity 89%
Rainfall 0.00 in
Snow Depth Not available.
6:39 AM 7:48 PM
Waning Crescent, 1% visible
METAR KMFR 310853Z AUTO 00000KT 10SM FU CLR 18/09 A2999 RMK AO2 SLP144 T01780094 56001
Pressure 29.96 in
Visibility 10.0 miles
Clouds Clear
Windchill 45 °F
Dew Point 42 °F
Humidity 89%
Rainfall 0.00 in
Snow Depth Not available.
6:39 AM 7:48 PM
Waning Crescent, 1% visible
METAR KMFR 310853Z AUTO 00000KT 10SM FU CLR 18/09 A2999 RMK AO2 SLP144 T01780094 56001

10-Day Weather Forecast

Almanac

Astronomy

Aug. 31, 2016 Rise Set
Actual Time
Civil Twilight
Nautical Twilight
Astronomical Twilight
Moon
Length of Visible Light
Length of Day
Tomorrow will be .
, % of the Moon is Illuminated

Today's Extremes

State Highs State Lows

Community

WunderPhotos

Upload Photos

1,936,059 photos uploaded!

WunderBlog® & News

Nearby

Air Quality

  Air Quality AQ Index Pollutant
Not available.

Snow Depth

Station Depth Elevation

Earthquake Activity

City Distance Mag. Time & Date
Minimum magnitude displayed is 2.5.

Coastal Water Temperatures

Place Temperature

Stations

Nearby Weather Stations

Station Location Temp. Windchill Dew Point Humidity Wind Precip. Elev Updated Type
                   

Watches & Warnings

There are currently no watches in effect.